createdAt,value
2023-06-14T00:01:36.482Z,5.97
2023-06-14T00:04:19.256Z,5.32
2023-06-14T00:07:01.860Z,5.50
2023-06-14T00:09:44.399Z,4.80
2023-06-14T00:12:27.346Z,5.00
2023-06-14T00:15:10.884Z,5.97
2023-06-14T00:17:53.490Z,6.30
2023-06-14T00:20:35.769Z,6.15
2023-06-14T00:23:19.025Z,5.15
2023-06-14T00:26:01.478Z,4.57
2023-06-14T00:28:44.025Z,3.72
2023-06-14T00:31:26.381Z,4.05
2023-06-14T00:34:10.755Z,4.60
2023-06-14T00:36:53.104Z,4.13
2023-06-14T00:39:35.891Z,3.75
2023-06-14T00:42:28.311Z,4.05
2023-06-14T00:45:11.567Z,4.18
2023-06-14T00:47:56.481Z,4.10
2023-06-14T00:50:39.437Z,4.35
2023-06-14T00:53:24.068Z,4.38
2023-06-14T00:56:07.946Z,4.18
2023-06-14T00:58:52.178Z,4.18
2023-06-14T01:01:34.939Z,4.38
2023-06-14T01:04:17.366Z,4.05
2023-06-14T01:07:25.257Z,4.20
2023-06-14T01:10:33.784Z,3.85
2023-06-14T01:13:47.297Z,3.35
2023-06-14T01:16:32.785Z,4.00
2023-06-14T01:19:16.918Z,3.67
2023-06-14T01:22:02.596Z,3.45
2023-06-14T01:24:46.252Z,3.38
2023-06-14T01:27:33.724Z,3.47
2023-06-14T01:30:18.046Z,3.25
2023-06-14T01:33:01.163Z,3.53
2023-06-14T01:35:50.533Z,3.30
2023-06-14T01:38:33.728Z,3.83
2023-06-14T01:41:17.600Z,3.40
2023-06-14T01:44:01.172Z,3.60
2023-06-14T01:46:45.010Z,3.78
2023-06-14T01:49:27.527Z,4.38
2023-06-14T01:52:10.947Z,4.25
2023-06-14T01:54:53.425Z,3.92
2023-06-14T01:57:36.035Z,3.97
2023-06-14T02:00:19.309Z,4.28
2023-06-14T02:03:02.186Z,3.92
2023-06-14T02:05:44.925Z,4.55
2023-06-14T02:08:27.559Z,4.47
2023-06-14T02:11:10.185Z,4.35
2023-06-14T02:13:52.676Z,4.45
2023-06-14T02:16:37.282Z,4.50
2023-06-14T02:19:21.637Z,4.47
2023-06-14T02:22:04.056Z,5.28
2023-06-14T02:24:46.595Z,4.93
2023-06-14T02:27:28.866Z,5.50
2023-06-14T02:30:12.256Z,5.07
2023-06-14T02:32:54.730Z,5.00
2023-06-14T02:35:38.797Z,5.63
2023-06-14T02:38:21.955Z,5.43
2023-06-14T02:41:05.245Z,5.47
2023-06-14T02:43:47.544Z,5.18
2023-06-14T02:46:30.224Z,4.75
2023-06-14T02:49:13.017Z,5.18
2023-06-14T02:51:55.519Z,5.43
2023-06-14T02:54:37.915Z,5.38
2023-06-14T02:57:21.558Z,5.20
2023-06-14T03:00:04.691Z,5.18
2023-06-14T03:02:50.148Z,5.82
2023-06-14T03:05:34.631Z,5.28
2023-06-14T03:08:21.086Z,5.30
2023-06-14T03:11:07.551Z,5.47
2023-06-14T03:13:52.201Z,5.25
2023-06-14T03:16:35.502Z,5.95
2023-06-14T03:19:18.236Z,5.43
2023-06-14T03:22:00.700Z,6.05
2023-06-14T03:24:45.982Z,6.20
2023-06-14T03:27:30.907Z,6.63
2023-06-14T03:30:15.340Z,5.90
2023-06-14T03:33:02.248Z,6.70
2023-06-14T03:35:45.801Z,6.77
2023-06-14T03:38:28.276Z,6.30
2023-06-14T03:41:11.360Z,7.15
2023-06-14T03:43:54.181Z,6.65
2023-06-14T03:46:37.680Z,8.05
2023-06-14T03:49:19.995Z,6.90
2023-06-14T03:52:03.544Z,7.18
2023-06-14T03:57:34.860Z,7.60
2023-06-14T04:00:19.329Z,7.45
2023-06-14T04:03:02.339Z,8.02
2023-06-14T04:05:45.822Z,7.10
2023-06-14T04:08:29.132Z,7.72
2023-06-14T04:11:14.413Z,7.90
2023-06-14T04:13:58.773Z,7.85
2023-06-14T04:16:42.302Z,7.90
2023-06-14T04:19:25.046Z,8.07
2023-06-14T04:22:07.596Z,7.15
2023-06-14T04:25:04.437Z,7.35
2023-06-14T04:27:48.532Z,7.68
2023-06-14T04:30:32.698Z,7.72
2023-06-14T04:33:15.990Z,7.50
2023-06-14T04:36:01.362Z,7.47
2023-06-14T04:38:47.591Z,7.38
2023-06-14T04:41:31.954Z,7.20
2023-06-14T04:44:18.296Z,7.00
2023-06-14T04:47:03.858Z,7.43
2023-06-14T04:49:47.187Z,7.20
2023-06-14T04:52:30.971Z,7.95
2023-06-14T04:55:15.186Z,7.72
2023-06-14T04:57:58.243Z,7.50
2023-06-14T05:00:43.728Z,6.80
2023-06-14T05:03:28.230Z,6.35
2023-06-14T05:06:10.918Z,7.10
2023-06-14T05:08:53.965Z,7.13
2023-06-14T05:11:36.567Z,6.70
2023-06-14T05:14:19.641Z,7.38
2023-06-14T05:17:03.708Z,6.38
2023-06-14T05:19:46.357Z,6.80
2023-06-14T05:22:29.235Z,6.50
2023-06-14T05:25:11.756Z,6.65
2023-06-14T05:27:54.023Z,6.47
2023-06-14T05:30:36.922Z,6.80
2023-06-14T05:33:19.543Z,6.97
2023-06-14T05:36:02.276Z,7.13
2023-06-14T05:38:44.741Z,5.88
2023-06-14T05:41:28.096Z,6.38
2023-06-14T05:44:12.484Z,6.55
2023-06-14T05:46:55.298Z,6.85
2023-06-14T05:49:37.663Z,6.13
2023-06-14T05:52:20.579Z,6.57
2023-06-14T05:55:03.449Z,7.00
2023-06-14T05:57:46.109Z,6.82
2023-06-14T06:00:29.003Z,6.50
2023-06-14T06:03:12.582Z,6.32
2023-06-14T06:05:54.980Z,6.32
2023-06-14T06:08:37.651Z,6.53
2023-06-14T06:11:20.060Z,6.28
2023-06-14T06:14:02.891Z,6.60
2023-06-14T06:16:45.576Z,6.65
2023-06-14T06:19:28.236Z,6.65
2023-06-14T06:22:10.687Z,6.25
2023-06-14T06:24:53.312Z,6.72
2023-06-14T06:27:37.231Z,5.80
2023-06-14T06:30:21.087Z,5.60
2023-06-14T06:33:04.470Z,6.10
2023-06-14T06:35:47.266Z,5.45
2023-06-14T06:38:29.805Z,5.60
2023-06-14T06:41:12.612Z,5.78
2023-06-14T06:43:55.097Z,5.57
2023-06-14T06:46:45.267Z,5.13
2023-06-14T06:49:28.063Z,5.07
2023-06-14T06:52:10.754Z,4.35
2023-06-14T06:54:56.128Z,5.28
2023-06-14T06:57:38.820Z,5.20
2023-06-14T07:00:22.483Z,4.60
2023-06-14T07:03:05.378Z,4.72
2023-06-14T07:05:55.569Z,4.78
2023-06-14T07:08:39.750Z,4.97
2023-06-14T07:11:22.151Z,5.07
2023-06-14T07:14:04.948Z,5.15
2023-06-14T07:16:48.022Z,5.15
2023-06-14T07:19:31.825Z,5.13
2023-06-14T07:22:14.276Z,5.55
2023-06-14T07:24:57.891Z,4.68
2023-06-14T07:27:41.015Z,4.53
2023-06-14T07:30:27.130Z,4.10
2023-06-14T07:33:09.819Z,4.60
2023-06-14T07:35:54.010Z,4.88
2023-06-14T07:38:37.741Z,4.90
2023-06-14T07:41:20.498Z,4.10
2023-06-14T07:44:03.238Z,4.47
2023-06-14T07:46:47.232Z,4.50
2023-06-14T07:49:29.565Z,4.68
2023-06-14T07:52:15.064Z,4.70
2023-06-14T07:54:57.862Z,4.50
2023-06-14T07:57:40.531Z,4.60
2023-06-14T08:00:22.908Z,4.60
2023-06-14T08:03:05.614Z,4.30
2023-06-14T08:05:48.152Z,4.57
2023-06-14T08:08:31.584Z,5.22
2023-06-14T08:11:13.901Z,4.60
2023-06-14T08:13:56.503Z,4.63
2023-06-14T08:16:39.041Z,4.45
2023-06-14T08:19:21.816Z,4.22
2023-06-14T08:22:05.087Z,4.43
2023-06-14T08:24:47.900Z,4.32
2023-06-14T08:27:31.172Z,4.38
2023-06-14T08:30:14.427Z,4.55
2023-06-14T08:33:10.974Z,4.22
2023-06-14T08:35:58.985Z,4.43
2023-06-14T08:38:41.410Z,4.50
2023-06-14T08:41:25.827Z,5.10
2023-06-14T08:44:08.642Z,4.75
2023-06-14T08:46:54.445Z,4.60
2023-06-14T08:49:39.269Z,4.80
2023-06-14T08:52:23.911Z,4.70
2023-06-14T08:55:06.777Z,4.93
2023-06-14T08:57:50.510Z,5.05
2023-06-14T09:00:34.736Z,5.22
2023-06-14T09:03:21.986Z,5.30
2023-06-14T09:06:05.172Z,4.82
2023-06-14T09:08:51.254Z,5.30
2023-06-14T09:11:33.659Z,5.45
2023-06-14T09:14:16.339Z,5.53
2023-06-14T09:16:59.757Z,5.60
2023-06-14T09:19:42.761Z,4.70
2023-06-14T09:22:25.757Z,5.45
2023-06-14T09:25:08.967Z,4.90
2023-06-14T09:27:53.095Z,5.30
2023-06-14T09:30:36.906Z,5.00
2023-06-14T09:33:19.647Z,4.97
2023-06-14T09:36:02.228Z,5.07
2023-06-14T09:39:01.795Z,5.22
2023-06-14T09:41:45.137Z,5.63
2023-06-14T09:44:31.181Z,5.60
2023-06-14T09:47:14.455Z,5.43
2023-06-14T09:49:56.831Z,5.47
2023-06-14T09:52:40.478Z,5.53
2023-06-14T09:55:23.971Z,5.75
2023-06-14T09:58:08.928Z,5.07
2023-06-14T10:00:55.550Z,5.57
2023-06-14T10:03:57.680Z,5.20
2023-06-14T10:06:47.426Z,5.20
2023-06-14T10:09:33.020Z,5.20
2023-06-14T10:12:22.101Z,5.63
2023-06-14T10:15:06.004Z,5.22
2023-06-14T10:17:57.507Z,5.45
2023-06-14T10:20:52.685Z,5.60
2023-06-14T10:23:39.064Z,6.13
2023-06-14T10:26:23.883Z,5.55
2023-06-14T10:29:10.479Z,5.40
2023-06-14T10:31:58.773Z,5.53
2023-06-14T10:34:41.470Z,5.88
2023-06-14T10:37:25.442Z,5.03
2023-06-14T10:40:10.223Z,5.47
2023-06-14T10:42:53.594Z,5.65
2023-06-14T10:45:36.146Z,5.78
2023-06-14T10:48:34.942Z,6.95
2023-06-14T10:51:21.804Z,5.57
2023-06-14T10:54:04.464Z,5.40
2023-06-14T10:56:51.989Z,4.93
2023-06-14T10:59:34.730Z,5.32
2023-06-14T11:02:55.775Z,5.85
2023-06-14T11:05:55.607Z,5.35
2023-06-14T11:08:47.044Z,5.20
2023-06-14T11:11:37.727Z,5.45
2023-06-14T11:14:21.115Z,5.55
2023-06-14T11:17:04.536Z,5.72
2023-06-14T11:19:47.012Z,5.43
2023-06-14T11:22:29.693Z,4.68
2023-06-14T11:25:13.742Z,5.00
2023-06-14T11:27:57.665Z,5.22
2023-06-14T11:30:39.998Z,5.55
2023-06-14T11:33:24.132Z,6.15
2023-06-14T11:36:09.990Z,5.03
2023-06-14T11:39:04.991Z,5.03
2023-06-14T11:41:47.622Z,5.13
2023-06-14T11:44:30.981Z,5.75
2023-06-14T11:47:13.558Z,5.65
2023-06-14T11:49:56.261Z,6.18
2023-06-14T11:52:39.319Z,5.80
2023-06-14T11:55:22.961Z,6.07
2023-06-14T11:58:06.167Z,6.68
2023-06-14T12:00:51.316Z,6.25
2023-06-14T12:03:33.754Z,6.10
2023-06-14T12:06:17.266Z,6.50
2023-06-14T12:09:02.299Z,6.78
2023-06-14T12:11:45.226Z,6.03
2023-06-14T12:14:32.904Z,5.82
2023-06-14T12:17:19.094Z,5.07
2023-06-14T12:22:54.764Z,6.60
2023-06-14T12:25:40.315Z,6.25
2023-06-14T12:28:22.984Z,6.00
2023-06-14T12:31:05.847Z,6.00
2023-06-14T12:33:50.299Z,6.40
2023-06-14T12:36:33.435Z,6.43
2023-06-14T12:39:16.297Z,5.80
2023-06-14T12:41:59.134Z,6.85
2023-06-14T12:44:42.116Z,6.30
2023-06-14T12:47:24.557Z,6.50
2023-06-14T12:50:08.273Z,6.32
2023-06-14T12:52:50.729Z,6.85
2023-06-14T12:55:34.142Z,6.28
2023-06-14T12:58:18.357Z,6.75
2023-06-14T13:01:01.300Z,6.90
2023-06-14T13:03:43.888Z,6.82
2023-06-14T13:06:26.677Z,6.15
2023-06-14T13:09:09.342Z,6.68
2023-06-14T13:11:52.090Z,7.20
2023-06-14T13:14:34.750Z,7.55
2023-06-14T13:17:17.558Z,6.50
2023-06-14T13:20:00.227Z,6.95
2023-06-14T13:22:43.087Z,6.50
2023-06-14T13:25:26.090Z,6.82
2023-06-14T13:28:08.956Z,6.90
2023-06-14T13:30:52.080Z,6.32
2023-06-14T13:33:34.811Z,6.70
2023-06-14T13:36:19.792Z,6.72
2023-06-14T13:39:02.609Z,6.53
2023-06-14T13:41:45.061Z,2.45
2023-06-14T13:44:27.809Z,2.42
2023-06-14T13:47:10.396Z,2.78
2023-06-14T13:49:53.403Z,3.65
2023-06-14T13:52:36.509Z,4.10
2023-06-14T13:55:19.513Z,4.07
2023-06-14T13:58:02.422Z,4.22
2023-06-14T14:00:45.396Z,4.60
2023-06-14T14:03:52.814Z,4.88
2023-06-14T14:06:36.583Z,4.75
2023-06-14T14:09:19.236Z,4.38
2023-06-14T14:12:05.708Z,5.05
2023-06-14T14:14:48.650Z,5.53
2023-06-14T14:17:31.542Z,6.22
2023-06-14T14:20:17.052Z,5.43
2023-06-14T14:23:00.694Z,5.55
2023-06-14T14:25:43.255Z,5.60
2023-06-14T14:28:26.718Z,5.57
2023-06-14T14:31:09.207Z,5.97
2023-06-14T14:33:51.908Z,5.72
2023-06-14T14:36:38.998Z,6.38
2023-06-14T14:39:21.971Z,7.07
2023-06-14T14:42:04.706Z,7.55
2023-06-14T14:44:47.433Z,7.93
2023-06-14T14:47:29.811Z,8.27
2023-06-14T14:50:12.802Z,8.32
2023-06-14T14:52:55.451Z,8.93
2023-06-14T14:55:40.629Z,9.60
2023-06-14T14:58:24.080Z,10.25
2023-06-14T15:01:07.118Z,9.98
2023-06-14T15:03:59.182Z,8.60
2023-06-14T15:06:43.211Z,9.82
2023-06-14T15:09:25.541Z,9.38
2023-06-14T15:12:08.916Z,8.80
2023-06-14T15:14:54.906Z,9.35
2023-06-14T15:17:37.717Z,7.82
2023-06-14T15:20:20.099Z,8.18
2023-06-14T15:23:02.745Z,7.32
2023-06-14T15:25:45.052Z,8.35
2023-06-14T15:28:29.927Z,8.25
2023-06-14T15:31:12.395Z,8.07
2023-06-14T15:33:55.072Z,9.25
2023-06-14T15:36:37.557Z,8.05
2023-06-14T15:39:20.714Z,8.63
2023-06-14T15:42:03.725Z,9.15
2023-06-14T15:44:48.461Z,8.80
2023-06-14T15:47:30.923Z,9.13
2023-06-14T15:50:13.676Z,7.40
2023-06-14T15:52:56.080Z,7.97
2023-06-14T15:55:38.693Z,7.43
2023-06-14T15:58:21.179Z,7.72
2023-06-14T16:01:03.751Z,8.32
2023-06-14T16:03:46.353Z,8.43
2023-06-14T16:06:29.438Z,9.93
2023-06-14T16:09:11.805Z,10.52
2023-06-14T16:11:56.076Z,10.23
2023-06-14T16:14:38.606Z,10.82
2023-06-14T16:17:21.200Z,11.73
2023-06-14T16:20:03.633Z,11.80
2023-06-14T16:22:46.190Z,12.30
2023-06-14T16:25:30.043Z,12.32
2023-06-14T16:28:12.628Z,13.30
2023-06-14T16:30:54.904Z,14.27
2023-06-14T16:33:37.467Z,14.70
2023-06-14T16:36:19.732Z,12.73
2023-06-14T16:39:02.613Z,12.88
2023-06-14T16:41:45.233Z,11.85
2023-06-14T16:44:27.889Z,12.48
2023-06-14T16:47:11.545Z,14.00
2023-06-14T16:49:54.121Z,12.82
2023-06-14T16:52:37.236Z,12.02
2023-06-14T16:55:19.979Z,13.15
2023-06-14T16:58:02.709Z,13.18
2023-06-14T17:00:45.444Z,12.07
2023-06-14T17:03:29.034Z,13.07
2023-06-14T17:06:11.910Z,12.50
2023-06-14T17:08:54.598Z,12.75
2023-06-14T17:11:37.336Z,11.98
2023-06-14T17:14:22.102Z,12.27
2023-06-14T17:17:05.189Z,13.50
2023-06-14T17:19:47.511Z,14.10
2023-06-14T17:22:30.361Z,16.20
2023-06-14T17:25:12.590Z,15.82
2023-06-14T17:27:55.167Z,13.95
2023-06-14T17:30:37.471Z,17.90
2023-06-14T17:33:21.623Z,14.35
2023-06-14T17:36:06.504Z,13.85
2023-06-14T17:38:49.613Z,12.73
2023-06-14T17:41:33.590Z,13.68
2023-06-14T17:44:17.020Z,14.20
2023-06-14T17:46:59.994Z,13.27
2023-06-14T17:49:43.189Z,13.50
2023-06-14T17:52:25.718Z,14.25
2023-06-14T17:55:09.009Z,18.15
2023-06-14T17:57:51.587Z,15.40
2023-06-14T18:00:34.764Z,17.52
2023-06-14T18:03:18.477Z,14.20
2023-06-14T18:06:01.556Z,14.55
2023-06-14T18:08:48.607Z,14.65
2023-06-14T18:11:32.034Z,12.63
2023-06-14T18:14:14.905Z,13.32
2023-06-14T18:16:57.798Z,13.75
2023-06-14T18:19:43.343Z,13.88
2023-06-14T18:22:27.532Z,13.77
2023-06-14T18:25:10.251Z,13.05
2023-06-14T18:27:53.250Z,12.98
2023-06-14T18:30:36.006Z,13.15
2023-06-14T18:33:18.719Z,12.73
2023-06-14T18:36:01.110Z,13.30
2023-06-14T18:38:44.191Z,14.73
2023-06-14T18:41:27.027Z,14.60
2023-06-14T18:44:10.335Z,14.32
2023-06-14T18:46:52.825Z,14.68
2023-06-14T18:49:36.548Z,14.80
2023-06-14T18:52:19.183Z,15.38
2023-06-14T18:55:04.465Z,14.52
2023-06-14T18:57:48.008Z,15.13
2023-06-14T19:00:31.718Z,14.30
2023-06-14T19:03:15.330Z,14.88
2023-06-14T19:06:00.189Z,13.95
2023-06-14T19:08:44.075Z,13.20
2023-06-14T19:11:27.092Z,13.50
2023-06-14T19:14:12.545Z,13.77
2023-06-14T19:16:56.560Z,13.13
2023-06-14T19:19:39.461Z,13.98
2023-06-14T19:22:22.385Z,13.75
2023-06-14T19:25:05.914Z,13.40
2023-06-14T19:27:49.674Z,12.85
2023-06-14T19:30:32.803Z,13.02
2023-06-14T19:33:17.898Z,13.23
2023-06-14T19:36:00.524Z,11.95
2023-06-14T19:38:43.996Z,12.25
2023-06-14T19:41:28.711Z,12.30
2023-06-14T19:44:12.028Z,10.67
2023-06-14T19:46:54.635Z,11.73
2023-06-14T19:49:37.389Z,12.35
2023-06-14T19:52:19.901Z,12.63
2023-06-14T19:55:03.211Z,13.82
2023-06-14T19:57:46.181Z,13.20
2023-06-14T20:00:28.896Z,13.50
2023-06-14T20:03:12.186Z,13.07
2023-06-14T20:05:56.559Z,13.23
2023-06-14T20:08:39.835Z,13.73
2023-06-14T20:11:22.312Z,12.98
2023-06-14T20:14:07.256Z,12.88
2023-06-14T20:16:50.141Z,14.00
2023-06-14T20:19:32.562Z,12.98
2023-06-14T20:22:15.341Z,13.25
2023-06-14T20:24:57.745Z,13.90
2023-06-14T20:27:40.524Z,14.07
2023-06-14T20:30:23.006Z,14.48
2023-06-14T20:33:05.531Z,13.05
2023-06-14T20:35:47.840Z,13.20
2023-06-14T20:38:30.420Z,13.18
2023-06-14T20:41:12.884Z,11.55
2023-06-14T20:43:58.531Z,11.32
2023-06-14T20:46:44.447Z,11.95
2023-06-14T20:49:28.557Z,12.90
2023-06-14T20:52:11.620Z,14.18
2023-06-14T20:54:55.607Z,15.02
2023-06-14T20:57:37.903Z,16.02
2023-06-14T21:00:20.796Z,14.68
2023-06-14T21:03:04.095Z,13.45
2023-06-14T21:05:47.128Z,13.55
2023-06-14T21:08:29.575Z,13.20
2023-06-14T21:11:14.057Z,13.48
2023-06-14T21:13:56.346Z,13.80
2023-06-14T21:16:39.103Z,13.57
2023-06-14T21:19:21.474Z,14.63
2023-06-14T21:22:04.266Z,13.98
2023-06-14T21:24:46.587Z,14.50
2023-06-14T21:27:29.146Z,14.10
2023-06-14T21:30:15.419Z,13.95
2023-06-14T21:32:58.251Z,14.15
2023-06-14T21:35:40.672Z,14.73
2023-06-14T21:38:23.198Z,15.25
2023-06-14T21:41:05.434Z,15.25
2023-06-14T21:43:47.934Z,15.13
2023-06-14T21:46:32.480Z,16.35
2023-06-14T21:49:14.942Z,22.40
2023-06-14T21:51:57.116Z,22.88
2023-06-14T21:54:39.761Z,23.30
2023-06-14T21:57:21.958Z,20.23
2023-06-14T22:00:05.902Z,18.20
2023-06-14T22:02:48.583Z,21.45
2023-06-14T22:05:31.384Z,17.42
2023-06-14T22:08:14.640Z,17.38
2023-06-14T22:10:57.259Z,16.75
2023-06-14T22:13:40.063Z,16.45
2023-06-14T22:16:24.280Z,17.05
2023-06-14T22:19:07.733Z,17.58
2023-06-14T22:21:52.616Z,18.05
2023-06-14T22:24:35.107Z,17.00
2023-06-14T22:27:21.392Z,17.80
2023-06-14T22:30:05.782Z,18.55
2023-06-14T22:32:49.965Z,17.77
2023-06-14T22:35:32.894Z,17.88
2023-06-14T22:38:20.332Z,18.27
2023-06-14T22:41:08.596Z,17.52
2023-06-14T22:43:51.067Z,19.15
2023-06-14T22:46:34.284Z,17.50
2023-06-14T22:49:18.343Z,18.30
2023-06-14T22:52:02.519Z,16.92
2023-06-14T22:54:45.459Z,17.70
2023-06-14T22:57:27.641Z,17.23
2023-06-14T23:00:12.887Z,17.15
2023-06-14T23:02:55.119Z,17.67
2023-06-14T23:05:42.424Z,17.20
2023-06-14T23:08:24.615Z,17.75
2023-06-14T23:11:09.732Z,17.50
2023-06-14T23:13:54.494Z,16.70
2023-06-14T23:16:37.088Z,17.45
2023-06-14T23:19:19.316Z,17.35
2023-06-14T23:22:03.097Z,18.02
2023-06-14T23:24:45.817Z,17.27
2023-06-14T23:27:31.058Z,17.80
2023-06-14T23:30:15.186Z,17.45
2023-06-14T23:32:58.508Z,16.77
2023-06-14T23:35:41.885Z,17.27
2023-06-14T23:38:25.360Z,17.60
2023-06-14T23:41:07.605Z,16.83
2023-06-14T23:43:52.530Z,17.25
2023-06-14T23:46:34.805Z,17.65
2023-06-14T23:49:17.845Z,17.58
2023-06-14T23:52:02.822Z,17.20
2023-06-14T23:54:47.273Z,16.52
2023-06-14T23:57:29.513Z,16.25
